createdAt,value
2023-01-12T00:00:32.158Z,9.77
2023-01-12T00:03:35.011Z,12.10
2023-01-12T00:06:39.018Z,11.40
2023-01-12T00:09:44.762Z,8.30
2023-01-12T00:12:47.467Z,10.67
2023-01-12T00:16:04.524Z,12.67
2023-01-12T00:19:12.666Z,12.80
2023-01-12T00:22:18.304Z,12.03
2023-01-12T00:25:21.476Z,10.47
2023-01-12T00:28:24.217Z,12.97
2023-01-12T00:31:26.950Z,11.87
2023-01-12T00:34:32.980Z,9.83
2023-01-12T00:37:37.226Z,9.57
2023-01-12T00:40:39.945Z,15.10
2023-01-12T00:44:00.156Z,14.07
2023-01-12T00:47:03.915Z,16.70
2023-01-12T00:50:07.276Z,10.20
2023-01-12T00:53:13.830Z,10.77
2023-01-12T00:56:17.167Z,6.27
2023-01-12T00:59:24.396Z,13.60
2023-01-12T01:02:27.937Z,8.20
2023-01-12T01:05:31.175Z,10.03
2023-01-12T01:08:37.777Z,14.13
2023-01-12T01:11:41.676Z,14.23
2023-01-12T01:14:44.450Z,10.33
2023-01-12T01:17:47.098Z,7.30
2023-01-12T01:20:49.783Z,10.43
2023-01-12T01:23:54.124Z,10.30
2023-01-12T01:26:56.815Z,8.97
2023-01-12T01:29:59.457Z,8.03
2023-01-12T01:33:02.209Z,10.67
2023-01-12T01:36:05.246Z,9.57
2023-01-12T01:39:09.314Z,7.97
2023-01-12T01:42:27.962Z,14.00
2023-01-12T01:45:30.848Z,12.53
2023-01-12T01:48:37.779Z,14.10
2023-01-12T01:51:43.055Z,12.60
2023-01-12T01:54:51.747Z,10.73
2023-01-12T01:57:58.417Z,18.43
2023-01-12T02:01:20.258Z,10.30
2023-01-12T02:04:25.949Z,6.97
2023-01-12T02:07:28.616Z,12.77
2023-01-12T02:10:32.827Z,8.27
2023-01-12T02:13:53.121Z,14.60
2023-01-12T02:17:08.174Z,8.90
2023-01-12T02:20:48.363Z,13.90
2023-01-12T02:24:20.507Z,9.23
2023-01-12T02:27:51.667Z,12.47
2023-01-12T02:31:17.773Z,15.90
2023-01-12T02:34:35.396Z,13.83
2023-01-12T02:37:47.535Z,9.30
2023-01-12T02:40:59.572Z,13.40
2023-01-12T02:44:05.395Z,13.43
2023-01-12T02:47:17.269Z,12.17
2023-01-12T02:50:24.948Z,17.33
2023-01-12T02:53:34.452Z,17.70
2023-01-12T02:56:41.010Z,7.60
2023-01-12T02:59:46.678Z,13.80
2023-01-12T03:02:52.093Z,16.13
2023-01-12T03:05:56.877Z,11.03
2023-01-12T03:08:59.684Z,16.97
2023-01-12T03:12:07.095Z,12.17
2023-01-12T03:15:12.466Z,11.83
2023-01-12T03:18:28.272Z,14.57
2023-01-12T03:21:36.461Z,15.37
2023-01-12T03:24:43.057Z,15.37
2023-01-12T03:27:49.970Z,13.60
2023-01-12T03:30:57.856Z,16.43
2023-01-12T03:34:03.007Z,11.10
2023-01-12T03:37:12.690Z,10.63
2023-01-12T03:40:19.949Z,15.43
2023-01-12T03:43:29.665Z,9.63
2023-01-12T03:46:36.768Z,15.90
2023-01-12T03:49:45.056Z,16.73
2023-01-12T03:52:49.522Z,9.23
2023-01-12T03:56:00.629Z,10.80
2023-01-12T03:59:05.080Z,13.57
2023-01-12T04:02:08.629Z,7.87
2023-01-12T04:05:14.130Z,13.40
2023-01-12T04:08:17.619Z,13.07
2023-01-12T04:11:37.802Z,14.83
2023-01-12T04:14:41.917Z,13.73
2023-01-12T04:17:44.625Z,12.87
2023-01-12T04:20:48.677Z,13.43
2023-01-12T04:23:50.407Z,8.67
2023-01-12T04:26:53.111Z,14.40
2023-01-12T04:29:55.961Z,15.00
2023-01-12T04:32:59.463Z,9.90
2023-01-12T04:36:03.504Z,13.03
2023-01-12T04:39:08.112Z,14.73
2023-01-12T04:42:31.000Z,11.73
2023-01-12T04:45:36.005Z,11.03
2023-01-12T04:48:40.704Z,12.73
2023-01-12T04:51:45.655Z,13.90
2023-01-12T04:54:48.316Z,9.10
2023-01-12T04:57:51.081Z,16.17
2023-01-12T05:00:53.753Z,15.77
2023-01-12T05:03:57.863Z,15.67
2023-01-12T05:07:02.541Z,11.23
2023-01-12T05:10:24.633Z,12.47
2023-01-12T05:13:35.461Z,7.40
2023-01-12T05:16:38.828Z,12.77
2023-01-12T05:19:41.735Z,9.23
2023-01-12T05:22:45.963Z,11.17
2023-01-12T05:25:48.631Z,13.47
2023-01-12T05:28:52.188Z,7.93
2023-01-12T05:31:54.949Z,13.00
2023-01-12T05:34:57.682Z,13.73
2023-01-12T05:38:02.158Z,12.50
2023-01-12T05:41:07.350Z,12.23
2023-01-12T05:44:09.691Z,8.17
2023-01-12T05:47:12.355Z,10.47
2023-01-12T05:50:17.293Z,15.50
2023-01-12T05:53:23.759Z,13.37
2023-01-12T05:56:27.924Z,13.20
2023-01-12T05:59:30.837Z,11.53
2023-01-12T06:02:36.735Z,10.80
2023-01-12T06:05:39.450Z,12.37
2023-01-12T06:08:43.530Z,10.27
2023-01-12T06:12:03.918Z,11.53
2023-01-12T06:15:09.736Z,11.53
2023-01-12T06:18:12.627Z,15.10
2023-01-12T06:21:15.625Z,10.97
2023-01-12T06:24:19.635Z,13.10
2023-01-12T06:27:22.409Z,9.57
2023-01-12T06:30:25.163Z,12.07
2023-01-12T06:33:28.870Z,11.10
2023-01-12T06:36:33.153Z,9.40
2023-01-12T06:39:37.195Z,11.90
2023-01-12T06:42:42.126Z,9.13
2023-01-12T06:45:45.378Z,7.30
2023-01-12T06:48:48.280Z,7.30
2023-01-12T06:51:51.512Z,10.93
2023-01-12T06:54:56.601Z,7.27
2023-01-12T06:58:05.783Z,8.93
2023-01-12T07:01:12.590Z,12.60
2023-01-12T07:04:24.167Z,9.63
2023-01-12T07:07:26.894Z,9.80
2023-01-12T07:10:32.608Z,14.10
2023-01-12T07:13:35.705Z,12.03
2023-01-12T07:16:45.597Z,10.90
2023-01-12T07:19:48.269Z,12.00
2023-01-12T07:22:51.148Z,11.80
2023-01-12T07:25:57.726Z,12.20
2023-01-12T07:29:02.719Z,9.20
2023-01-12T07:32:07.932Z,11.93
2023-01-12T07:35:10.835Z,7.90
2023-01-12T07:38:13.681Z,13.33
2023-01-12T07:41:37.762Z,11.13
2023-01-12T07:44:42.174Z,11.33
2023-01-12T07:47:53.315Z,15.03
2023-01-12T07:50:56.660Z,15.87
2023-01-12T07:53:59.369Z,7.83
2023-01-12T07:57:06.197Z,19.73
2023-01-12T08:00:13.482Z,10.33
2023-01-12T08:03:23.550Z,7.13
2023-01-12T08:06:26.241Z,6.40
2023-01-12T08:09:29.143Z,12.07
2023-01-12T08:12:33.492Z,9.10
2023-01-12T08:15:42.873Z,5.43
2023-01-12T08:18:49.132Z,7.33
2023-01-12T08:21:58.692Z,8.53
2023-01-12T08:25:06.247Z,11.97
2023-01-12T08:28:13.587Z,7.80
2023-01-12T08:34:22.436Z,11.73
2023-01-12T08:37:26.090Z,8.30
2023-01-12T08:40:50.268Z,5.27
2023-01-12T08:44:03.157Z,8.47
2023-01-12T08:47:15.343Z,9.37
2023-01-12T08:50:18.025Z,10.33
2023-01-12T08:53:20.649Z,3.47
2023-01-12T08:56:23.737Z,3.87
2023-01-12T08:59:28.623Z,5.60
2023-01-12T09:02:31.437Z,7.03
2023-01-12T09:05:34.225Z,7.40
2023-01-12T09:08:36.972Z,10.27
2023-01-12T09:11:42.944Z,7.30
2023-01-12T09:14:49.835Z,10.63
2023-01-12T09:17:53.961Z,9.50
2023-01-12T09:21:01.399Z,2.63
2023-01-12T09:24:04.486Z,6.57
2023-01-12T09:27:07.228Z,5.50
2023-01-12T09:30:14.477Z,4.77
2023-01-12T09:33:19.940Z,6.63
2023-01-12T09:36:26.384Z,5.00
2023-01-12T09:39:29.102Z,3.87
2023-01-12T09:42:49.409Z,4.73
2023-01-12T09:46:10.992Z,8.93
2023-01-12T09:49:15.892Z,5.87
2023-01-12T09:52:23.528Z,4.20
2023-01-12T09:55:30.403Z,5.67
2023-01-12T09:59:09.899Z,5.37
2023-01-12T10:02:14.921Z,6.70
2023-01-12T10:05:39.635Z,7.40
2023-01-12T10:08:45.192Z,6.47
2023-01-12T10:11:57.239Z,5.77
2023-01-12T10:15:29.903Z,7.63
2023-01-12T10:18:40.525Z,4.50
2023-01-12T10:21:43.310Z,6.87
2023-01-12T10:24:47.232Z,3.83
2023-01-12T10:27:52.169Z,7.77
2023-01-12T10:30:59.198Z,6.83
2023-01-12T10:34:07.023Z,4.97
2023-01-12T10:37:13.278Z,5.37
2023-01-12T10:40:32.924Z,3.53
2023-01-12T10:43:43.169Z,7.13
2023-01-12T10:47:09.881Z,6.57
2023-01-12T10:50:27.355Z,10.50
2023-01-12T10:53:37.072Z,5.03
2023-01-12T10:56:43.167Z,8.00
2023-01-12T10:59:55.656Z,8.53
2023-01-12T11:02:58.577Z,7.27
2023-01-12T11:06:24.589Z,3.53
2023-01-12T11:09:29.237Z,5.53
2023-01-12T11:12:35.823Z,6.50
2023-01-12T11:15:40.276Z,7.23
2023-01-12T11:18:48.952Z,4.80
2023-01-12T11:21:57.877Z,4.43
2023-01-12T11:25:05.373Z,6.40
2023-01-12T11:28:17.096Z,5.07
2023-01-12T11:31:23.760Z,4.13
2023-01-12T11:34:30.880Z,4.83
2023-01-12T11:37:39.368Z,3.70
2023-01-12T11:40:44.621Z,6.97
2023-01-12T11:43:59.012Z,4.53
2023-01-12T11:47:07.220Z,8.07
2023-01-12T11:50:16.882Z,4.40
2023-01-12T11:53:26.386Z,3.53
2023-01-12T11:56:53.033Z,4.13
2023-01-12T12:00:07.282Z,8.27
2023-01-12T12:03:28.200Z,8.83
2023-01-12T12:07:03.090Z,2.70
2023-01-12T12:10:21.147Z,3.40
2023-01-12T12:13:35.859Z,6.23
2023-01-12T12:16:48.438Z,6.60
2023-01-12T12:20:05.155Z,5.07
2023-01-12T12:23:23.960Z,3.63
2023-01-12T12:26:33.372Z,5.33
2023-01-12T12:29:51.500Z,3.50
2023-01-12T12:33:14.907Z,3.40
2023-01-12T12:36:24.242Z,3.63
2023-01-12T12:39:46.342Z,1.67
2023-01-12T12:43:22.975Z,2.37
2023-01-12T12:46:34.586Z,6.37
2023-01-12T12:49:40.503Z,2.67
2023-01-12T12:52:44.348Z,4.67
2023-01-12T12:55:47.569Z,5.80
2023-01-12T12:58:53.239Z,6.00
2023-01-12T13:01:56.614Z,3.13
2023-01-12T13:05:05.019Z,5.13
2023-01-12T13:08:17.947Z,3.50
2023-01-12T13:11:22.706Z,3.23
2023-01-12T13:14:29.034Z,2.60
2023-01-12T13:17:44.730Z,3.07
2023-01-12T13:20:55.687Z,3.83
2023-01-12T13:24:27.010Z,4.07
2023-01-12T13:27:54.175Z,6.33
2023-01-12T13:31:03.088Z,2.50
2023-01-12T13:34:31.601Z,1.90
2023-01-12T13:37:45.686Z,2.70
2023-01-12T13:40:56.031Z,2.37
2023-01-12T13:44:01.211Z,3.10
2023-01-12T13:47:20.059Z,4.03
2023-01-12T13:50:28.461Z,2.13
2023-01-12T13:53:32.974Z,1.17
2023-01-12T13:56:36.030Z,4.97
2023-01-12T13:59:38.780Z,2.27
2023-01-12T14:02:43.424Z,3.90
2023-01-12T14:05:58.242Z,2.37
2023-01-12T14:09:14.063Z,1.47
2023-01-12T14:12:32.050Z,1.60
2023-01-12T14:15:56.090Z,2.67
2023-01-12T14:19:00.308Z,2.70
2023-01-12T14:22:06.877Z,3.03
2023-01-12T14:25:21.480Z,1.63
2023-01-12T14:28:25.563Z,1.03
2023-01-12T14:31:34.685Z,1.23
2023-01-12T14:34:38.934Z,4.07
2023-01-12T14:37:41.752Z,2.20
2023-01-12T14:40:50.339Z,0.77
2023-01-12T14:44:10.412Z,1.40
2023-01-12T14:47:25.156Z,1.40
2023-01-12T14:50:29.192Z,1.93
2023-01-12T14:53:39.851Z,5.80
2023-01-12T14:56:45.144Z,2.53
2023-01-12T14:59:49.863Z,2.70
2023-01-12T15:02:54.210Z,1.53
2023-01-12T15:05:59.447Z,0.93
2023-01-12T15:09:02.308Z,2.40
2023-01-12T15:12:43.929Z,2.50
2023-01-12T15:16:10.916Z,4.13
2023-01-12T15:19:33.104Z,5.77
2023-01-12T15:22:54.636Z,3.03
2023-01-12T15:25:57.532Z,3.53
2023-01-12T15:29:00.349Z,1.97
2023-01-12T15:32:06.486Z,4.37
2023-01-12T15:35:16.348Z,2.00
2023-01-12T15:38:20.754Z,3.83
2023-01-12T15:41:39.890Z,1.80
2023-01-12T15:44:43.253Z,3.57
2023-01-12T15:47:45.927Z,2.63
2023-01-12T15:50:49.464Z,4.90
2023-01-12T15:53:53.582Z,2.63
2023-01-12T15:56:59.716Z,3.23
2023-01-12T16:00:03.209Z,3.93
2023-01-12T16:03:06.223Z,0.73
2023-01-12T16:06:09.024Z,1.83
2023-01-12T16:09:13.203Z,3.70
2023-01-12T16:12:16.137Z,2.00
2023-01-12T16:15:20.963Z,2.17
2023-01-12T16:18:23.671Z,3.83
2023-01-12T16:21:28.469Z,7.03
2023-01-12T16:24:32.762Z,6.20
2023-01-12T16:27:37.458Z,4.53
2023-01-12T16:30:44.949Z,4.30
2023-01-12T16:33:48.411Z,5.27
2023-01-12T16:36:51.571Z,3.73
2023-01-12T16:39:57.135Z,1.03
2023-01-12T16:42:59.871Z,7.07
2023-01-12T16:46:03.555Z,2.37
2023-01-12T16:49:06.455Z,5.37
2023-01-12T16:52:13.359Z,12.53
2023-01-12T16:55:17.503Z,7.13
2023-01-12T16:58:20.638Z,5.03
2023-01-12T17:01:24.826Z,10.30
2023-01-12T17:04:27.997Z,5.03
2023-01-12T17:07:30.983Z,1.53
2023-01-12T17:10:36.470Z,3.23
2023-01-12T17:13:40.256Z,4.10
2023-01-12T17:16:43.826Z,2.73
2023-01-12T17:19:47.355Z,2.07
2023-01-12T17:22:50.153Z,2.07
2023-01-12T17:25:55.794Z,6.00
2023-01-12T17:28:58.625Z,2.40
2023-01-12T17:32:06.708Z,3.97
2023-01-12T17:35:10.839Z,3.40
2023-01-12T17:38:13.681Z,3.33
2023-01-12T17:41:32.177Z,5.80
2023-01-12T17:44:34.851Z,4.23
2023-01-12T17:47:37.592Z,5.20
2023-01-12T17:50:41.074Z,4.03
2023-01-12T17:53:44.060Z,2.07
2023-01-12T17:56:48.164Z,2.83
2023-01-12T17:59:51.580Z,1.27
2023-01-12T18:02:54.619Z,3.17
2023-01-12T18:06:04.499Z,1.90
2023-01-12T18:09:11.175Z,2.40
2023-01-12T18:12:16.439Z,2.07
2023-01-12T18:15:19.879Z,2.40
2023-01-12T18:18:22.657Z,2.73
2023-01-12T18:21:27.632Z,5.37
2023-01-12T18:24:30.544Z,3.73
2023-01-12T18:27:34.600Z,2.17
2023-01-12T18:30:37.429Z,4.77
2023-01-12T18:33:40.450Z,3.43
2023-01-12T18:36:43.676Z,3.33
2023-01-12T18:39:46.802Z,2.87
2023-01-12T18:42:49.942Z,4.10
2023-01-12T18:45:52.611Z,1.77
2023-01-12T18:48:54.395Z,3.07
2023-01-12T18:52:16.016Z,3.10
2023-01-12T18:55:19.250Z,3.10
2023-01-12T18:58:24.580Z,1.93
2023-01-12T19:01:27.317Z,0.97
2023-01-12T19:04:48.236Z,11.47
2023-01-12T19:08:05.199Z,2.77
2023-01-12T19:11:09.533Z,4.83
2023-01-12T19:14:30.825Z,3.60
2023-01-12T19:17:33.821Z,2.33
2023-01-12T19:20:39.721Z,1.20
2023-01-12T19:24:00.056Z,1.27
2023-01-12T19:27:20.886Z,2.37
2023-01-12T19:30:25.018Z,2.03
2023-01-12T19:33:27.897Z,3.57
2023-01-12T19:36:30.573Z,2.10
2023-01-12T19:39:59.640Z,1.50
2023-01-12T19:43:13.691Z,3.87
2023-01-12T19:46:18.210Z,1.93
2023-01-12T19:49:20.942Z,1.30
2023-01-12T19:52:23.655Z,2.63
2023-01-12T19:55:26.690Z,2.13
2023-01-12T19:58:29.632Z,2.83
2023-01-12T20:01:33.887Z,3.80
2023-01-12T20:04:36.925Z,2.53
2023-01-12T20:07:39.789Z,3.10
2023-01-12T20:10:42.503Z,2.67
2023-01-12T20:13:45.166Z,4.50
2023-01-12T20:16:49.216Z,2.50
2023-01-12T20:19:52.136Z,1.87
2023-01-12T20:22:55.617Z,3.20
2023-01-12T20:25:58.960Z,3.07
2023-01-12T20:29:01.699Z,3.20
2023-01-12T20:32:06.081Z,3.87
2023-01-12T20:35:10.430Z,1.50
2023-01-12T20:38:16.250Z,3.40
2023-01-12T20:41:19.919Z,3.13
2023-01-12T20:44:22.917Z,2.70
2023-01-12T20:47:27.795Z,2.40
2023-01-12T20:50:30.556Z,1.10
2023-01-12T20:53:33.275Z,2.53
2023-01-12T20:56:35.964Z,1.10
2023-01-12T20:59:38.962Z,2.50
2023-01-12T21:02:43.100Z,2.00
2023-01-12T21:05:47.367Z,1.83
2023-01-12T21:08:50.074Z,2.50
2023-01-12T21:11:53.338Z,4.27
2023-01-12T21:14:56.184Z,2.50
2023-01-12T21:18:00.334Z,5.47
2023-01-12T21:21:03.465Z,2.27
2023-01-12T21:24:06.708Z,3.10
2023-01-12T21:27:09.443Z,1.23
2023-01-12T21:30:12.945Z,5.00
2023-01-12T21:33:17.801Z,2.90
2023-01-12T21:36:20.632Z,0.83
2023-01-12T21:39:23.370Z,2.67
2023-01-12T21:42:43.657Z,2.83
2023-01-12T21:45:49.107Z,2.67
2023-01-12T21:48:53.252Z,2.47
2023-01-12T21:51:55.909Z,2.43
2023-01-12T21:54:58.597Z,1.90
2023-01-12T21:58:02.912Z,1.30
2023-01-12T22:01:10.801Z,2.57
2023-01-12T22:04:14.925Z,1.07
2023-01-12T22:07:18.056Z,1.60
2023-01-12T22:10:21.032Z,2.23
2023-01-12T22:13:23.921Z,1.53
2023-01-12T22:16:27.361Z,3.77
2023-01-12T22:19:31.877Z,1.67
2023-01-12T22:22:35.373Z,1.43
2023-01-12T22:25:38.866Z,1.40
2023-01-12T22:28:43.718Z,2.00
2023-01-12T22:31:46.567Z,2.40
2023-01-12T22:34:51.153Z,2.83
2023-01-12T22:37:54.760Z,0.93
2023-01-12T22:40:57.837Z,2.37
2023-01-12T22:44:02.677Z,2.60
2023-01-12T22:47:05.400Z,4.33
2023-01-12T22:50:11.523Z,2.30
2023-01-12T22:53:14.862Z,2.53
2023-01-12T22:56:20.440Z,3.33
2023-01-12T22:59:23.259Z,3.90
2023-01-12T23:02:44.891Z,2.37
2023-01-12T23:05:56.230Z,4.17
2023-01-12T23:08:59.059Z,4.43
2023-01-12T23:12:02.080Z,1.70
2023-01-12T23:15:05.452Z,3.13
2023-01-12T23:18:09.222Z,2.13
2023-01-12T23:21:15.820Z,3.83
2023-01-12T23:24:18.713Z,1.80
2023-01-12T23:27:21.570Z,3.07
2023-01-12T23:30:24.401Z,1.90
2023-01-12T23:33:27.296Z,2.13
2023-01-12T23:36:31.909Z,3.03
2023-01-12T23:39:34.748Z,3.87
2023-01-12T23:42:37.709Z,2.30
2023-01-12T23:45:40.597Z,2.30
2023-01-12T23:48:43.825Z,2.63
2023-01-12T23:51:48.045Z,3.13
2023-01-12T23:54:51.874Z,2.50
2023-01-12T23:57:54.724Z,2.33
